createdAt,value
2019-01-04T00:04:45.238Z,99.90
2019-01-04T00:09:36.667Z,99.90
2019-01-04T00:14:28.010Z,99.90
2019-01-04T00:19:19.496Z,99.90
2019-01-04T00:24:10.856Z,99.90
2019-01-04T00:29:04.431Z,99.90
2019-01-04T00:33:55.966Z,99.90
2019-01-04T00:38:47.335Z,99.90
2019-01-04T00:43:38.744Z,99.90
2019-01-04T00:48:30.166Z,99.90
2019-01-04T00:53:21.628Z,99.90
2019-01-04T00:58:12.925Z,99.90
2019-01-04T01:03:04.389Z,99.90
2019-01-04T01:07:55.788Z,99.90
2019-01-04T01:12:47.132Z,99.90
2019-01-04T01:17:38.561Z,99.90
2019-01-04T01:22:29.923Z,99.90
2019-01-04T01:27:21.336Z,99.90
2019-01-04T01:32:12.773Z,99.90
2019-01-04T01:37:04.181Z,99.90
2019-01-04T01:41:55.483Z,99.90
2019-01-04T01:46:46.925Z,99.90
2019-01-04T01:51:38.413Z,99.90
2019-01-04T01:56:29.826Z,99.90
2019-01-04T02:01:21.226Z,99.90
2019-01-04T02:06:12.545Z,99.90
2019-01-04T02:11:04.011Z,99.90
2019-01-04T02:15:55.328Z,99.90
2019-01-04T02:20:46.759Z,99.90
2019-01-04T02:25:38.180Z,99.90
2019-01-04T02:30:29.500Z,99.90
2019-01-04T02:35:20.935Z,99.90
2019-01-04T02:40:12.275Z,99.90
2019-01-04T02:45:03.692Z,99.90
2019-01-04T02:49:55.121Z,99.90
2019-01-04T02:54:46.480Z,99.90
2019-01-04T02:59:37.824Z,99.90
2019-01-04T03:04:29.257Z,99.90
2019-01-04T03:09:20.640Z,99.90
2019-01-04T03:14:11.986Z,99.90
2019-01-04T03:19:03.490Z,99.90
2019-01-04T03:23:54.785Z,99.90
2019-01-04T03:28:46.260Z,99.90
2019-01-04T03:33:37.670Z,99.90
2019-01-04T03:38:28.984Z,99.90
2019-01-04T03:43:20.406Z,99.90
2019-01-04T03:48:11.863Z,99.90
2019-01-04T03:53:03.135Z,99.90
2019-01-04T03:57:54.564Z,99.90
2019-01-04T04:02:46.003Z,99.90
2019-01-04T04:07:37.419Z,99.90
2019-01-04T04:12:28.780Z,99.90
2019-01-04T04:17:20.213Z,99.90
2019-01-04T04:22:11.564Z,99.90
2019-01-04T04:27:02.937Z,99.90
2019-01-04T04:31:54.367Z,99.90
2019-01-04T04:36:45.774Z,99.90
2019-01-04T04:41:37.160Z,99.90
2019-01-04T04:46:28.566Z,99.90
2019-01-04T04:51:19.902Z,99.90
2019-01-04T04:56:11.274Z,99.90
2019-01-04T05:01:02.653Z,99.90
2019-01-04T05:05:54.116Z,99.90
2019-01-04T05:10:45.461Z,99.90
2019-01-04T05:15:36.894Z,99.90
2019-01-04T05:20:28.256Z,99.90
2019-01-04T05:25:19.673Z,99.90
2019-01-04T05:30:11.135Z,99.90
2019-01-04T05:35:02.498Z,99.90
2019-01-04T05:39:53.908Z,99.90
2019-01-04T05:44:45.377Z,99.90
2019-01-04T05:49:36.700Z,99.90
2019-01-04T05:54:28.084Z,99.90
2019-01-04T05:59:19.450Z,99.90
2019-01-04T06:04:10.988Z,99.90
2019-01-04T06:09:02.315Z,99.90
2019-01-04T06:13:53.744Z,99.90
2019-01-04T06:18:45.221Z,99.90
2019-01-04T06:23:38.668Z,99.90
2019-01-04T06:28:30.230Z,99.90
2019-01-04T06:33:21.620Z,99.90
2019-01-04T06:38:12.956Z,99.90
2019-01-04T06:43:04.371Z,99.90
2019-01-04T06:47:55.722Z,99.90
2019-01-04T06:52:47.206Z,99.90
2019-01-04T06:57:38.606Z,99.90
2019-01-04T07:02:29.946Z,99.90
2019-01-04T07:07:21.371Z,99.90
2019-01-04T07:12:12.795Z,99.90
2019-01-04T07:17:04.163Z,99.90
2019-01-04T07:21:55.569Z,99.90
2019-01-04T07:26:46.928Z,99.90
2019-01-04T07:31:38.299Z,99.90
2019-01-04T07:36:29.706Z,99.90
2019-01-04T07:41:21.112Z,99.90
2019-01-04T07:46:12.575Z,99.90
2019-01-04T07:51:03.937Z,99.90
2019-01-04T07:55:55.457Z,99.90
2019-01-04T08:00:46.856Z,99.90
2019-01-04T08:05:38.222Z,99.90
2019-01-04T08:10:29.546Z,99.90
2019-01-04T08:15:20.933Z,99.90
2019-01-04T08:20:12.373Z,99.90
2019-01-04T08:25:03.759Z,99.90
2019-01-04T08:29:55.184Z,99.90
2019-01-04T08:34:46.491Z,99.90
2019-01-04T08:39:37.911Z,99.90
2019-01-04T08:44:29.321Z,99.90
2019-01-04T08:49:20.678Z,99.90
2019-01-04T08:54:12.127Z,99.90
2019-01-04T08:59:03.424Z,99.90
2019-01-04T09:03:54.898Z,99.90
2019-01-04T09:08:46.264Z,99.50
2019-01-04T09:13:37.718Z,99.90
2019-01-04T09:18:29.083Z,98.40
2019-01-04T09:23:20.553Z,99.20
2019-01-04T09:28:17.868Z,98.00
2019-01-04T09:33:03.295Z,98.30
2019-01-04T09:37:54.697Z,94.70
2019-01-04T09:42:46.098Z,94.00
2019-01-04T09:47:37.551Z,95.00
2019-01-04T09:52:28.978Z,91.80
2019-01-04T09:57:24.149Z,91.70
2019-01-04T10:02:11.724Z,95.10
2019-01-04T10:07:03.123Z,93.10
2019-01-04T10:11:54.519Z,85.90
2019-01-04T10:16:45.945Z,92.50
2019-01-04T10:21:39.499Z,90.60
2019-01-04T10:26:31.102Z,90.70
2019-01-04T10:31:22.489Z,89.20
2019-01-04T10:36:13.859Z,93.80
2019-01-04T10:41:05.203Z,89.20
2019-01-04T10:45:56.691Z,90.20
2019-01-04T10:50:48.093Z,85.60
2019-01-04T10:55:39.458Z,86.90
2019-01-04T11:00:30.817Z,85.90
2019-01-04T11:05:22.242Z,88.20
2019-01-04T11:10:13.689Z,88.70
2019-01-04T11:15:05.122Z,88.60
2019-01-04T11:19:56.501Z,91.30
2019-01-04T11:24:47.851Z,88.00
2019-01-04T11:29:39.321Z,89.40
2019-01-04T11:34:30.593Z,90.10
2019-01-04T11:39:22.045Z,91.70
2019-01-04T11:44:15.541Z,93.40
2019-01-04T11:49:07.148Z,93.40
2019-01-04T11:53:58.475Z,93.30
2019-01-04T11:58:49.919Z,90.20
2019-01-04T12:03:41.306Z,91.30
2019-01-04T12:08:34.820Z,90.80
2019-01-04T12:13:28.524Z,88.90
2019-01-04T12:18:26.733Z,87.00
2019-01-04T12:23:22.731Z,87.50
2019-01-04T12:28:14.142Z,88.30
2019-01-04T12:33:05.608Z,85.40
2019-01-04T12:37:59.110Z,86.00
2019-01-04T12:42:57.313Z,86.60
2019-01-04T12:47:57.814Z,86.60
2019-01-04T12:52:53.753Z,87.60
2019-01-04T12:57:51.937Z,88.40
2019-01-04T13:02:50.166Z,87.70
2019-01-04T13:07:46.067Z,86.50
2019-01-04T13:12:44.359Z,84.00
2019-01-04T13:17:42.497Z,86.20
2019-01-04T13:22:43.010Z,85.50
2019-01-04T13:27:38.940Z,85.20
2019-01-04T13:32:34.881Z,86.60
2019-01-04T13:37:33.059Z,87.60
2019-01-04T13:42:31.277Z,87.60
2019-01-04T13:47:22.715Z,86.60
2019-01-04T13:52:14.185Z,89.00
2019-01-04T13:57:05.582Z,86.30
2019-01-04T14:01:56.990Z,86.90
2019-01-04T14:06:50.514Z,85.90
2019-01-04T14:11:44.149Z,85.30
2019-01-04T14:16:49.152Z,85.80
2019-01-04T14:21:40.650Z,86.90
2019-01-04T14:26:36.487Z,87.60
2019-01-04T14:31:36.987Z,87.20
2019-01-04T14:36:37.439Z,86.90
2019-01-04T14:46:27.012Z,88.90
2019-01-04T14:51:27.464Z,88.20
2019-01-04T14:56:23.420Z,88.90
2019-01-04T15:01:21.619Z,90.80
2019-01-04T15:06:19.785Z,91.10
2019-01-04T15:11:15.773Z,90.70
2019-01-04T15:16:07.317Z,90.50
2019-01-04T15:21:00.845Z,90.70
2019-01-04T15:25:52.456Z,91.30
2019-01-04T15:30:50.495Z,92.90
2019-01-04T15:35:48.687Z,93.20
2019-01-04T15:40:46.924Z,93.90
2019-01-04T15:45:42.852Z,94.90
2019-01-04T15:50:41.062Z,94.50
2019-01-04T15:55:39.257Z,94.60
2019-01-04T16:00:39.763Z,95.20
2019-01-04T16:05:35.661Z,95.20
2019-01-04T16:10:33.874Z,96.20
2019-01-04T16:15:29.817Z,96.90
2019-01-04T16:20:28.014Z,97.50
2019-01-04T16:25:26.186Z,97.20
2019-01-04T16:30:24.397Z,97.70
2019-01-04T16:35:20.353Z,97.80
2019-01-04T16:40:18.550Z,97.40
2019-01-04T16:45:19.033Z,98.40
2019-01-04T16:50:12.685Z,98.50
2019-01-04T16:55:04.268Z,98.80
2019-01-04T16:59:59.992Z,99.80
2019-01-04T17:04:53.656Z,99.30
2019-01-04T17:09:47.343Z,99.70
2019-01-04T17:14:38.925Z,98.80
2019-01-04T17:19:40.649Z,98.90
2019-01-04T17:24:26.146Z,98.60
2019-01-04T17:29:21.972Z,96.70
2019-01-04T17:34:13.423Z,97.30
2019-01-04T17:39:04.826Z,96.90
2019-01-04T17:44:00.642Z,97.50
2019-01-04T17:48:58.842Z,96.00
2019-01-04T17:53:54.823Z,95.80
2019-01-04T17:58:53.016Z,96.30
2019-01-04T18:03:48.942Z,96.50
2019-01-04T18:08:40.533Z,96.20
2019-01-04T18:13:31.882Z,96.50
2019-01-04T18:18:23.339Z,97.10
2019-01-04T18:23:14.710Z,97.50
2019-01-04T18:32:57.549Z,98.40
2019-01-04T18:42:40.318Z,97.10
2019-01-04T19:02:08.174Z,99.00
2019-01-04T19:06:59.520Z,99.70
2019-01-04T19:11:50.973Z,99.70
2019-01-04T19:36:12.897Z,99.90
2019-01-04T19:41:01.456Z,99.90
2019-01-04T19:45:53.008Z,99.90
2019-01-04T20:10:14.478Z,99.90
2019-01-04T20:19:57.392Z,99.90
2019-01-04T20:24:48.721Z,99.90
2019-01-04T20:29:40.147Z,99.90
2019-01-04T20:34:31.482Z,99.90
2019-01-04T20:39:22.972Z,99.90
2019-01-04T20:44:14.330Z,99.90
2019-01-04T20:49:05.681Z,99.90
2019-01-04T20:53:57.072Z,99.90
2019-01-04T20:58:48.447Z,99.90
2019-01-04T21:03:39.859Z,99.90
2019-01-04T21:08:31.303Z,99.90
2019-01-04T21:13:22.629Z,99.90
2019-01-04T21:18:14.056Z,99.90
2019-01-04T21:23:07.535Z,99.90
2019-01-04T21:27:59.141Z,99.90
2019-01-04T21:32:50.559Z,99.90
2019-01-04T21:37:41.930Z,99.90
2019-01-04T21:42:33.394Z,99.90
2019-01-04T21:47:24.804Z,99.90
2019-01-04T21:52:16.166Z,99.90
2019-01-04T21:57:07.667Z,99.90
2019-01-04T22:01:59.027Z,99.90
2019-01-04T22:06:50.492Z,99.90
2019-01-04T22:11:41.862Z,99.90
2019-01-04T22:16:33.330Z,99.90
2019-01-04T22:21:24.629Z,99.90
2019-01-04T22:26:16.052Z,99.90
2019-01-04T22:31:07.504Z,99.90
2019-01-04T22:35:58.824Z,99.90
2019-01-04T22:40:50.295Z,99.90
2019-01-04T22:50:32.986Z,99.90
2019-01-04T22:55:24.468Z,99.90
2019-01-04T23:00:15.865Z,99.90
2019-01-04T23:05:07.247Z,99.90
2019-01-04T23:09:58.759Z,99.90
2019-01-04T23:14:50.229Z,99.90
2019-01-04T23:19:41.622Z,99.90
2019-01-04T23:24:33.182Z,99.90
2019-01-04T23:29:24.544Z,99.90
2019-01-04T23:34:15.997Z,99.90
2019-01-04T23:39:07.253Z,99.90
2019-01-04T23:44:00.815Z,99.90
2019-01-04T23:48:52.329Z,99.90
2019-01-04T23:53:43.858Z,99.90
2019-01-04T23:58:35.251Z,99.90
